| time (UTC) | temp F | wind direction | speed knots | gust knots | rain 1hr in | rain 24hr in | rain mn in | humidity % | barometer mb |
| 20260903043739 | 74 | 147 | 0.0 | 0.9 | 0.00 | 0.00 | 0.00 | 92 | 1051.7 |
| 20260903043238 | 74 | 147 | 0.0 | 0.0 | 0.00 | 0.00 | 0.00 | 92 | 1051.8 |
| 20260903042737 | 74 | 147 | 0.0 | 0.0 | 0.00 | 0.00 | 0.00 | 92 | 1051.6 |
| 20260903042233 | 74 | 147 | 0.0 | 0.0 | 0.00 | 0.00 | 0.00 | 91 | 1051.6 |
| 20260903041729 | 75 | 147 | 0.0 | 0.0 | 0.00 | 0.00 | 0.00 | 91 | 1051.7 |
| 20260903041225 | 75 | 147 | 0.0 | 0.9 | 0.00 | 0.00 | 0.00 | 91 | 1051.5 |
| 20260903040724 | 75 | 153 | 0.9 | 0.9 | 0.00 | 0.00 | 0.00 | 91 | 1051.6 |
| 20260903040220 | 75 | 159 | 0.0 | 0.0 | 0.00 | 0.00 | 0.00 | 91 | 1051.5 |
| 20260903035716 | 75 | 159 | 0.0 | 0.0 | 0.00 | 0.00 | 0.00 | 90 | 1051.7 |
| 20260903035211 | 75 | 159 | 0.0 | 0.0 | 0.00 | 0.00 | 0.00 | 91 | 1051.4 |
| 20260903034711 | 75 | 159 | 0.0 | 0.0 | 0.00 | 0.00 | 0.00 | 91 | 1051.8 |
| 20260903034206 | 75 | 159 | 0.0 | 0.0 | 0.00 | 0.00 | 0.00 | 91 | 1051.7 |
| 20260903033702 | 75 | 159 | 0.0 | 0.0 | 0.00 | 0.00 | 0.00 | 91 | 1051.6 |
| 20260903033201 | 75 | 159 | 0.0 | 0.0 | 0.00 | 0.00 | 0.00 | 91 | 1051.7 |
| 20260903032656 | 76 | 159 | 0.0 | 0.0 | 0.00 | 0.00 | 0.00 | 90 | 1051.7 |
| 20260903032152 | 76 | 159 | 0.0 | 0.0 | 0.00 | 0.00 | 0.00 | 90 | 1051.8 |
| 20260903031648 | 76 | 159 | 0.0 | 0.0 | 0.00 | 0.00 | 0.00 | 89 | 1051.7 |
| 20260903031147 | 76 | 159 | 0.0 | 0.0 | 0.00 | 0.00 | 0.00 | 88 | 1051.9 |
| 20260903030643 | 76 | 159 | 0.0 | 0.0 | 0.00 | 0.00 | 0.00 | 88 | 1051.7 |
| 20260903030139 | 76 | 184 | 0.0 | 0.0 | 0.00 | 0.00 | 0.00 | 86 | 1051.7 |
| 20260903025634 | 76 | 184 | 0.0 | 0.0 | 0.00 | 0.00 | 0.00 | 86 | 1052.0 |
| 20260903025130 | 76 | 185 | 0.0 | 0.0 | 0.00 | 0.00 | 0.00 | 86 | 1052.0 |
| 20260903024625 | 76 | 185 | 0.0 | 0.0 | 0.00 | 0.00 | 0.00 | 86 | 1051.9 |
| 20260903024124 | 76 | 185 | 0.0 | 0.0 | 0.00 | 0.00 | 0.00 | 87 | 1051.8 |
| 20260903023620 | 76 | 185 | 0.0 | 0.0 | 0.00 | 0.00 | 0.00 | 87 | 1051.9 |
| 20260903023120 | 76 | 185 | 0.9 | 0.9 | 0.00 | 0.00 | 0.00 | 88 | 1052.0 |
| 20260903022615 | 76 | 156 | 0.0 | 0.9 | 0.00 | 0.00 | 0.00 | 89 | 1051.9 |
| 20260903022114 | 77 | 309 | 0.0 | 0.0 | 0.00 | 0.00 | 0.00 | 89 | 1051.9 |
| 20260903021614 | 77 | 309 | 0.0 | 0.0 | 0.00 | 0.00 | 0.00 | 89 | 1051.8 |
| 20260903021113 | 77 | 14 | 0.0 | 0.0 | 0.00 | 0.00 | 0.00 | 89 | 1052.0 |
| 20260903020609 | 77 | 99 | 0.0 | 0.0 | 0.00 | 0.00 | 0.00 | 89 | 1051.9 |
| 20260903020104 | 78 | 116 | 0.0 | 0.0 | 0.00 | 0.00 | 0.00 | 86 | 1051.8 |
| 20260903015559 | 78 | 12 | 0.0 | 0.0 | 0.00 | 0.00 | 0.00 | 86 | 1051.9 |
| 20260903015054 | 79 | 18 | 0.0 | 0.0 | 0.00 | 0.00 | 0.00 | 85 | 1052.1 |
| 20260903014549 | 79 | 7 | 0.0 | 0.0 | 0.00 | 0.00 | 0.00 | 82 | 1051.9 |
| 20260903014044 | 79 | 30 | 0.0 | 0.0 | 0.00 | 0.00 | 0.00 | 82 | 1052.1 |
| 20260903013543 | 80 | 16 | 0.0 | 0.0 | 0.00 | 0.00 | 0.00 | 82 | 1051.8 |
| 20260903013038 | 79 | 22 | 0.0 | 0.0 | 0.00 | 0.00 | 0.00 | 83 | 1051.8 |
| 20260903012537 | 80 | 21 | 0.0 | 0.0 | 0.00 | 0.00 | 0.00 | 82 | 1052.0 |
| 20260903012037 | 80 | 94 | 0.0 | 0.0 | 0.00 | 0.00 | 0.00 | 82 | 1051.8 |
| 20260903011536 | 80 | 84 | 0.0 | 0.9 | 0.00 | 0.00 | 0.00 | 82 | 1051.8 |
| 20260903011031 | 80 | 295 | 0.0 | 0.0 | 0.00 | 0.00 | 0.00 | 81 | 1051.6 |
| 20260903010527 | 81 | 344 | 0.0 | 0.0 | 0.00 | 0.00 | 0.00 | 79 | 1051.5 |
| 20260903010025 | 82 | 12 | 0.0 | 0.0 | 0.00 | 0.00 | 0.00 | 78 | 1051.5 |
| 20260903005525 | 82 | 310 | 0.0 | 0.0 | 0.00 | 0.00 | 0.00 | 77 | 1051.2 |
| 20260903005021 | 82 | 21 | 0.0 | 0.9 | 0.00 | 0.00 | 0.00 | 75 | 1051.6 |
| 20260903004520 | 83 | 28 | 0.9 | 0.9 | 0.00 | 0.00 | 0.00 | 74 | 1051.4 |
| 20260903004016 | 84 | 30 | 0.9 | 0.9 | 0.00 | 0.00 | 0.00 | 73 | 1051.2 |
| 20260903003512 | 84 | 28 | 0.9 | 0.9 | 0.00 | 0.00 | 0.00 | 72 | 1051.4 |
| 20260903003008 | 84 | 37 | 0.9 | 0.9 | 0.00 | 0.00 | 0.00 | 72 | 1051.4 |
| 20260903002506 | 84 | 27 | 0.9 | 0.9 | 0.00 | 0.00 | 0.00 | 69 | 1051.4 |
| 20260903002001 | 85 | 18 | 0.9 | 0.9 | 0.00 | 0.00 | 0.00 | 68 | 1051.6 |
| 20260903001456 | 85 | 88 | 0.0 | 0.0 | 0.00 | 0.00 | 0.00 | 68 | 1051.3 |
| 20260903000955 | 86 | 88 | 0.0 | 0.0 | 0.00 | 0.00 | 0.00 | 66 | 1051.3 |
| 20260903000451 | 87 | 79 | 0.9 | 0.9 | 0.00 | 0.00 | 0.00 | 62 | 1051.2 |
| 20260902235949 | 88 | 293 | 0.0 | 0.0 | 0.00 | 0.00 | 0.00 | 61 | 1051.4 |
| 20260902235444 | 89 | 6 | 0.9 | 0.9 | 0.00 | 0.00 | 0.00 | 58 | 1051.4 |
| 20260902234944 | 89 | 343 | 0.0 | 0.0 | 0.00 | 0.00 | 0.00 | 59 | 1051.4 |
| 20260902234439 | 91 | 7 | 0.9 | 0.9 | 0.00 | 0.00 | 0.00 | 54 | 1051.6 |
| 20260902233938 | 94 | 239 | 0.0 | 0.0 | 0.00 | 0.00 | 0.00 | 53 | 1051.4 |
| 20260902233432 | 94 | 239 | 0.0 | 0.0 | 0.00 | 0.00 | 0.00 | 53 | 1051.7 |
| 20260902232932 | 94 | 239 | 0.0 | 0.0 | 0.00 | 0.00 | 0.00 | 51 | 1051.5 |
| 20260902232427 | 93 | 239 | 0.0 | 0.0 | 0.00 | 0.00 | 0.00 | 51 | 1051.6 |
| 20260902231926 | 94 | 239 | 0.0 | 0.0 | 0.00 | 0.00 | 0.00 | 50 | 1051.4 |
| 20260902231422 | 94 | 242 | 0.0 | 0.0 | 0.00 | 0.00 | 0.00 | 50 | 1051.5 |
| 20260902230916 | 93 | 282 | 0.9 | 0.9 | 0.00 | 0.00 | 0.00 | 49 | 1051.5 |
| 20260902230416 | 94 | 282 | 0.9 | 0.9 | 0.00 | 0.00 | 0.00 | 49 | 1051.5 |
| 20260902225916 | 93 | 290 | 0.9 | 0.9 | 0.00 | 0.00 | 0.00 | 50 | 1051.7 |
| 20260902225411 | 94 | 283 | 0.9 | 0.9 | 0.00 | 0.00 | 0.00 | 47 | 1051.4 |
| 20260902224910 | 94 | 304 | 0.9 | 0.9 | 0.00 | 0.00 | 0.00 | 46 | 1051.6 |
| 20260902224409 | 94 | 289 | 0.9 | 1.7 | 0.00 | 0.00 | 0.00 | 47 | 1051.5 |
| 20260902223906 | 93 | 294 | 0.9 | 1.7 | 0.00 | 0.00 | 0.00 | 47 | 1051.6 |
| 20260902223407 | 93 | 298 | 2.6 | 2.6 | 0.00 | 0.00 | 0.00 | 46 | 1051.3 |
| 20260902222901 | 94 | 290 | 2.6 | 3.5 | 0.00 | 0.00 | 0.00 | 46 | 1051.8 |
| 20260902222359 | 94 | 286 | 1.7 | 2.6 | 0.00 | 0.00 | 0.00 | 49 | 1051.6 |
| 20260902221859 | 94 | 276 | 1.7 | 2.6 | 0.00 | 0.00 | 0.00 | 45 | 1051.5 |
| 20260902221359 | 94 | 285 | 1.7 | 3.5 | 0.00 | 0.00 | 0.00 | 45 | 1051.5 |
| 20260902220854 | 94 | 294 | 3.5 | 5.2 | 0.00 | 0.00 | 0.00 | 45 | 1051.8 |
| 20260902220354 | 94 | 241 | 0.0 | 3.5 | 0.00 | 0.00 | 0.00 | 47 | 1051.7 |
| 20260902215849 | 93 | 312 | 2.6 | 2.6 | 0.00 | 0.00 | 0.00 | 46 | 1051.7 |
| 20260902215344 | 93 | 320 | 2.6 | 2.6 | 0.00 | 0.00 | 0.00 | 45 | 1051.7 |
| 20260902214840 | 94 | 322 | 4.3 | 6.1 | 0.00 | 0.00 | 0.00 | 45 | 1051.8 |
| 20260902214339 | 94 | 326 | 3.5 | 7.0 | 0.00 | 0.00 | 0.00 | 46 | 1051.9 |
| 20260902213834 | 94 | 302 | 1.7 | 1.7 | 0.00 | 0.00 | 0.00 | 45 | 1051.9 |
| 20260902213330 | 94 | 295 | 3.5 | 3.5 | 0.00 | 0.00 | 0.00 | 45 | 1051.9 |
| 20260902212828 | 95 | 263 | 3.5 | 5.2 | 0.00 | 0.00 | 0.00 | 44 | 1052.0 |
| 20260902212325 | 95 | 330 | 0.9 | 1.7 | 0.00 | 0.00 | 0.00 | 46 | 1051.8 |
| 20260902211821 | 94 | 258 | 0.9 | 0.9 | 0.00 | 0.00 | 0.00 | 46 | 1052.0 |
| 20260902211317 | 94 | 289 | 5.2 | 6.1 | 0.00 | 0.00 | 0.00 | 42 | 1052.0 |
| 20260902210812 | 94 | 286 | 5.2 | 7.0 | 0.00 | 0.00 | 0.00 | 45 | 1052.2 |
| 20260902210312 | 94 | 284 | 1.7 | 3.5 | 0.00 | 0.00 | 0.00 | 48 | 1052.1 |
| 20260902205810 | 94 | 299 | 3.5 | 5.2 | 0.00 | 0.00 | 0.00 | 45 | 1052.0 |
| 20260902205306 | 94 | 349 | 1.7 | 5.2 | 0.00 | 0.00 | 0.00 | 46 | 1052.0 |
| 20260902204800 | 94 | 320 | 3.5 | 6.1 | 0.00 | 0.00 | 0.00 | 44 | 1052.2 |
| 20260902204255 | 95 | 320 | 5.2 | 7.0 | 0.00 | 0.00 | 0.00 | 44 | 1052.3 |
| 20260902203750 | 95 | 319 | 5.2 | 7.0 | 0.00 | 0.00 | 0.00 | 44 | 1052.1 |
| 20260902203250 | 94 | 289 | 7.0 | 8.7 | 0.00 | 0.00 | 0.00 | 43 | 1052.2 |
| 20260902202745 | 94 | 297 | 2.6 | 3.5 | 0.00 | 0.00 | 0.00 | 48 | 1052.2 |
| 20260902202242 | 95 | 252 | 3.5 | 5.2 | 0.00 | 0.00 | 0.00 | 44 | 1052.2 |
| 20260902201738 | 95 | 299 | 3.5 | 5.2 | 0.00 | 0.00 | 0.00 | 43 | 1052.0 |
| 20260902201237 | 95 | 270 | 3.5 | 7.0 | 0.00 | 0.00 | 0.00 | 44 | 1052.3 |
| 20260902200733 | 95 | 271 | 1.7 | 3.5 | 0.00 | 0.00 | 0.00 | 45 | 1052.2 |
| 20260902200228 | 95 | 268 | 4.3 | 5.2 | 0.00 | 0.00 | 0.00 | 43 | 1052.2 |
| 20260902195724 | 94 | 286 | 2.6 | 5.2 | 0.00 | 0.00 | 0.00 | 47 | 1052.4 |
| 20260902195223 | 94 | 213 | 2.6 | 5.2 | 0.00 | 0.00 | 0.00 | 46 | 1052.3 |
| 20260902194722 | 95 | 204 | 3.5 | 6.1 | 0.00 | 0.00 | 0.00 | 44 | 1052.4 |
| 20260902194218 | 95 | 245 | 4.3 | 6.1 | 0.00 | 0.00 | 0.00 | 44 | 1052.5 |
| 20260902193713 | 95 | 271 | 2.6 | 5.2 | 0.00 | 0.00 | 0.00 | 46 | 1052.5 |
| 20260902193208 | 95 | 288 | 2.6 | 3.5 | 0.00 | 0.00 | 0.00 | 49 | 1052.9 |
| 20260902192706 | 95 | 177 | 1.7 | 2.6 | 0.00 | 0.00 | 0.00 | 50 | 1052.9 |
| 20260902192201 | 94 | 227 | 3.5 | 5.2 | 0.00 | 0.00 | 0.00 | 48 | 1052.9 |
| 20260902191700 | 94 | 312 | 1.7 | 5.2 | 0.00 | 0.00 | 0.00 | 51 | 1052.7 |
| 20260902191155 | 94 | 285 | 4.3 | 3.5 | 0.00 | 0.00 | 0.00 | 48 | 1052.8 |
| 20260902190651 | 94 | 276 | 4.3 | 6.1 | 0.00 | 0.00 | 0.00 | 49 | 1053.0 |
| 20260902190146 | 94 | 250 | 2.6 | 3.5 | 0.00 | 0.00 | 0.00 | 48 | 1053.0 |
| 20260902185641 | 95 | 259 | 3.5 | 6.1 | 0.00 | 0.00 | 0.00 | 48 | 1053.1 |
| 20260902185137 | 94 | 50 | 1.7 | 5.2 | 0.00 | 0.00 | 0.00 | 50 | 1053.1 |
| 20260902184637 | 94 | 286 | 4.3 | 7.8 | 0.00 | 0.00 | 0.00 | 48 | 1053.1 |
| 20260902184133 | 94 | 303 | 7.0 | 8.7 | 0.00 | 0.00 | 0.00 | 45 | 1053.2 |
| 20260902183629 | 94 | 286 | 4.3 | 7.0 | 0.00 | 0.00 | 0.00 | 45 | 1053.0 |
| 20260902183125 | 94 | 215 | 4.3 | 6.1 | 0.00 | 0.00 | 0.00 | 48 | 1053.3 |
| 20260902182621 | 94 | 234 | 4.3 | 5.2 | 0.00 | 0.00 | 0.00 | 52 | 1053.3 |
| 20260902182117 | 94 | 271 | 1.7 | 2.6 | 0.00 | 0.00 | 0.00 | 51 | 1053.4 |
| 20260902181613 | 93 | 294 | 5.2 | 7.8 | 0.00 | 0.00 | 0.00 | 50 | 1053.3 |
| 20260902181113 | 93 | 351 | 4.3 | 6.1 | 0.00 | 0.00 | 0.00 | 51 | 1053.4 |
| 20260902180613 | 93 | 246 | 3.5 | 7.0 | 0.00 | 0.00 | 0.00 | 51 | 1053.3 |
| 20260902180109 | 94 | 244 | 3.5 | 7.8 | 0.00 | 0.00 | 0.00 | 51 | 1053.4 |
| 20260902175608 | 93 | 302 | 4.3 | 7.0 | 0.00 | 0.00 | 0.00 | 50 | 1053.5 |
| 20260902175104 | 93 | 295 | 4.3 | 7.0 | 0.00 | 0.00 | 0.00 | 52 | 1053.4 |
| 20260902174601 | 93 | 253 | 3.5 | 6.1 | 0.00 | 0.00 | 0.00 | 55 | 1053.5 |
| 20260902174055 | 92 | 202 | 1.7 | 8.7 | 0.00 | 0.00 | 0.00 | 53 | 1053.7 |
| 20260902173550 | 91 | 273 | 4.3 | 6.1 | 0.00 | 0.00 | 0.00 | 54 | 1053.9 |
| 20260902173045 | 92 | 278 | 3.5 | 6.1 | 0.00 | 0.00 | 0.00 | 54 | 1053.9 |
| 20260902172544 | 93 | 234 | 3.5 | 3.5 | 0.00 | 0.00 | 0.00 | 53 | 1053.8 |
| 20260902172039 | 93 | 295 | 4.3 | 6.1 | 0.00 | 0.00 | 0.00 | 52 | 1053.8 |
| 20260902171535 | 93 | 251 | 3.5 | 5.2 | 0.00 | 0.00 | 0.00 | 55 | 1054.0 |
| 20260902171031 | 93 | 228 | 3.5 | 3.5 | 0.00 | 0.00 | 0.00 | 54 | 1054.0 |
| 20260902170526 | 93 | 254 | 5.2 | 7.0 | 0.00 | 0.00 | 0.00 | 51 | 1054.0 |
| 20260902170022 | 93 | 179 | 2.6 | 3.5 | 0.00 | 0.00 | 0.00 | 53 | 1054.2 |
| 20260902165522 | 92 | 267 | 3.5 | 6.1 | 0.00 | 0.00 | 0.00 | 56 | 1054.0 |
| 20260902165021 | 92 | 204 | 2.6 | 6.1 | 0.00 | 0.00 | 0.00 | 54 | 1054.3 |
| 20260902164516 | 92 | 281 | 5.2 | 7.8 | 0.00 | 0.00 | 0.00 | 54 | 1054.1 |
| 20260902164015 | 92 | 264 | 5.2 | 7.0 | 0.00 | 0.00 | 0.00 | 56 | 1054.4 |
| 20260902163512 | 91 | 299 | 5.2 | 7.8 | 0.00 | 0.00 | 0.00 | 56 | 1054.2 |
| 20260902163010 | 92 | 287 | 1.7 | 6.1 | 0.00 | 0.00 | 0.00 | 59 | 1054.5 |
| 20260902162509 | 92 | 193 | 2.6 | 3.5 | 0.00 | 0.00 | 0.00 | 58 | 1054.3 |
| 20260902162005 | 92 | 312 | 3.5 | 5.2 | 0.00 | 0.00 | 0.00 | 58 | 1054.6 |
| 20260902161459 | 91 | 242 | 1.7 | 3.5 | 0.00 | 0.00 | 0.00 | 58 | 1054.5 |
| 20260902160955 | 92 | 287 | 5.2 | 7.0 | 0.00 | 0.00 | 0.00 | 55 | 1054.5 |
| 20260902160451 | 91 | 284 | 0.9 | 2.6 | 0.00 | 0.00 | 0.00 | 58 | 1054.5 |
| 20260902155948 | 91 | 10 | 0.9 | 3.5 | 0.00 | 0.00 | 0.00 | 58 | 1054.4 |
| 20260902155444 | 91 | 257 | 3.5 | 5.2 | 0.00 | 0.00 | 0.00 | 62 | 1054.5 |
| 20260902154937 | 91 | 299 | 1.7 | 2.6 | 0.00 | 0.00 | 0.00 | 60 | 1054.6 |
| 20260902154433 | 91 | 330 | 2.6 | 3.5 | 0.00 | 0.00 | 0.00 | 61 | 1054.6 |
| 20260902153933 | 91 | 315 | 3.5 | 6.1 | 0.00 | 0.00 | 0.00 | 59 | 1054.7 |
| 20260902153431 | 91 | 41 | 1.7 | 3.5 | 0.00 | 0.00 | 0.00 | 58 | 1054.7 |
| 20260902152927 | 90 | 288 | 0.9 | 1.7 | 0.00 | 0.00 | 0.00 | 64 | 1054.4 |
| 20260902152423 | 90 | 333 | 2.6 | 5.2 | 0.00 | 0.00 | 0.00 | 62 | 1054.7 |
| 20260902151919 | 90 | 323 | 3.5 | 3.5 | 0.00 | 0.00 | 0.00 | 59 | 1054.7 |
| 20260902151415 | 90 | 324 | 0.9 | 2.6 | 0.00 | 0.00 | 0.00 | 64 | 1054.7 |
| 20260902150914 | 89 | 355 | 0.9 | 1.7 | 0.00 | 0.00 | 0.00 | 63 | 1054.7 |
| 20260902150410 | 89 | 326 | 0.9 | 3.5 | 0.00 | 0.00 | 0.00 | 62 | 1054.5 |
| 20260902145910 | 88 | 96 | 0.0 | 0.9 | 0.00 | 0.00 | 0.00 | 65 | 1054.6 |
| 20260902145406 | 88 | 301 | 1.7 | 2.6 | 0.00 | 0.00 | 0.00 | 65 | 1054.4 |
| 20260902144901 | 88 | 324 | 1.7 | 6.1 | 0.00 | 0.00 | 0.00 | 66 | 1054.5 |
| 20260902144357 | 88 | 305 | 2.6 | 2.6 | 0.00 | 0.00 | 0.00 | 66 | 1054.5 |
| 20260902143856 | 88 | 327 | 0.9 | 1.7 | 0.00 | 0.00 | 0.00 | 68 | 1054.3 |
| 20260902143351 | 87 | 325 | 1.7 | 1.7 | 0.00 | 0.00 | 0.00 | 66 | 1054.5 |
| 20260902142847 | 87 | 212 | 0.9 | 0.9 | 0.00 | 0.00 | 0.00 | 67 | 1054.4 |
| 20260902142343 | 86 | 240 | 0.9 | 0.9 | 0.00 | 0.00 | 0.00 | 69 | 1054.6 |
| 20260902141838 | 85 | 241 | 0.9 | 2.6 | 0.00 | 0.00 | 0.00 | 69 | 1054.7 |
| 20260902141333 | 85 | 223 | 0.9 | 2.6 | 0.00 | 0.00 | 0.00 | 73 | 1054.6 |
| 20260902140833 | 84 | 293 | 2.6 | 2.6 | 0.00 | 0.00 | 0.00 | 71 | 1054.5 |
| 20260902140328 | 84 | 269 | 1.7 | 2.6 | 0.00 | 0.00 | 0.00 | 72 | 1054.3 |
| 20260902135827 | 84 | 205 | 0.9 | 2.6 | 0.00 | 0.00 | 0.00 | 74 | 1054.4 |
| 20260902135324 | 83 | 267 | 2.6 | 2.6 | 0.00 | 0.00 | 0.00 | 72 | 1054.4 |
| 20260902134822 | 83 | 297 | 2.6 | 3.5 | 0.00 | 0.00 | 0.00 | 73 | 1054.5 |
| 20260902134318 | 82 | 265 | 1.7 | 3.5 | 0.00 | 0.00 | 0.00 | 75 | 1054.7 |
| 20260902133813 | 82 | 333 | 1.7 | 2.6 | 0.00 | 0.00 | 0.00 | 74 | 1054.5 |
| 20260902133313 | 82 | 241 | 1.7 | 3.5 | 0.00 | 0.00 | 0.00 | 75 | 1054.4 |
| 20260902132808 | 81 | 273 | 1.7 | 1.7 | 0.00 | 0.00 | 0.00 | 77 | 1054.3 |
| 20260902132306 | 81 | 187 | 0.9 | 1.7 | 0.00 | 0.00 | 0.00 | 79 | 1054.5 |
| 20260902131759 | 80 | 278 | 0.9 | 1.7 | 0.00 | 0.00 | 0.00 | 79 | 1054.3 |
| 20260902131255 | 80 | 223 | 0.9 | 1.7 | 0.00 | 0.00 | 0.00 | 81 | 1054.5 |
| 20260902130755 | 80 | 255 | 0.9 | 0.9 | 0.00 | 0.00 | 0.00 | 80 | 1054.4 |
| 20260902130251 | 79 | 243 | 0.9 | 1.7 | 0.00 | 0.00 | 0.00 | 81 | 1054.6 |
| 20260902125746 | 79 | 212 | 1.7 | 1.7 | 0.00 | 0.00 | 0.00 | 81 | 1054.5 |
| 20260902125242 | 78 | 230 | 0.9 | 1.7 | 0.00 | 0.00 | 0.00 | 82 | 1054.4 |
| 20260902124738 | 78 | 285 | 0.9 | 1.7 | 0.00 | 0.00 | 0.00 | 82 | 1054.5 |
| 20260902124233 | 78 | 275 | 0.9 | 0.9 | 0.00 | 0.00 | 0.00 | 83 | 1054.2 |
| 20260902123728 | 78 | 275 | 0.0 | 0.0 | 0.00 | 0.00 | 0.00 | 82 | 1054.3 |
| 20260902123224 | 78 | 279 | 0.0 | 0.0 | 0.00 | 0.00 | 0.00 | 81 | 1054.3 |
| 20260902122723 | 78 | 160 | 0.0 | 0.0 | 0.00 | 0.00 | 0.00 | 83 | 1054.1 |
| 20260902122219 | 78 | 255 | 0.0 | 0.0 | 0.00 | 0.00 | 0.00 | 82 | 1054.3 |
| 20260902121719 | 78 | 134 | 0.0 | 0.0 | 0.00 | 0.00 | 0.00 | 82 | 1054.3 |
| 20260902121214 | 78 | 25 | 0.0 | 0.0 | 0.00 | 0.00 | 0.00 | 83 | 1054.1 |
| 20260902120710 | 77 | 281 | 0.0 | 0.0 | 0.00 | 0.00 | 0.00 | 85 | 1054.0 |
| 20260902120206 | 75 | 263 | 0.0 | 0.0 | 0.00 | 0.00 | 0.00 | 87 | 1054.0 |
| 20260902115706 | 74 | 297 | 0.0 | 0.0 | 0.00 | 0.00 | 0.00 | 88 | 1054.0 |
| 20260902115202 | 74 | 303 | 0.0 | 0.0 | 0.00 | 0.00 | 0.00 | 89 | 1053.9 |
| 20260902114658 | 73 | 290 | 0.0 | 0.0 | 0.00 | 0.00 | 0.00 | 90 | 1053.7 |
| 20260902114153 | 72 | 297 | 0.0 | 0.0 | 0.00 | 0.00 | 0.00 | 93 | 1053.8 |
| 20260902113648 | 72 | 303 | 0.0 | 0.0 | 0.00 | 0.00 | 0.00 | 93 | 1053.8 |
| 20260902113144 | 71 | 302 | 0.0 | 0.0 | 0.00 | 0.00 | 0.00 | 93 | 1053.9 |
| 20260902112643 | 71 | 324 | 0.0 | 0.0 | 0.00 | 0.00 | 0.00 | 94 | 1053.7 |
| 20260902112141 | 71 | 298 | 0.0 | 0.0 | 0.00 | 0.00 | 0.00 | 94 | 1053.5 |
| 20260902111642 | 71 | 302 | 0.0 | 0.0 | 0.00 | 0.00 | 0.00 | 94 | 1053.4 |
| 20260902111138 | 71 | 280 | 0.0 | 0.0 | 0.00 | 0.00 | 0.00 | 94 | 1053.7 |
| 20260902110633 | 71 | 293 | 0.0 | 0.0 | 0.00 | 0.00 | 0.00 | 94 | 1053.7 |
| 20260902110129 | 71 | 268 | 0.0 | 0.0 | 0.00 | 0.00 | 0.00 | 93 | 1053.5 |
| 20260902105629 | 71 | 245 | 0.0 | 0.0 | 0.00 | 0.00 | 0.00 | 93 | 1053.5 |
| 20260902105124 | 71 | 143 | 0.0 | 0.0 | 0.00 | 0.00 | 0.00 | 93 | 1053.3 |
| 20260902104619 | 71 | 133 | 0.0 | 0.0 | 0.00 | 0.00 | 0.00 | 94 | 1053.5 |
| 20260902104120 | 71 | 120 | 0.0 | 0.0 | 0.00 | 0.00 | 0.00 | 94 | 1053.5 |
| 20260902103619 | 71 | 110 | 0.0 | 0.0 | 0.00 | 0.00 | 0.00 | 95 | 1053.4 |
| 20260902103115 | 71 | 105 | 0.0 | 0.0 | 0.00 | 0.00 | 0.00 | 95 | 1053.3 |
| 20260902102611 | 71 | 154 | 0.0 | 0.0 | 0.00 | 0.00 | 0.00 | 95 | 1053.2 |
| 20260902102108 | 71 | 215 | 0.0 | 0.0 | 0.00 | 0.00 | 0.00 | 95 | 1053.3 |
| 20260902101603 | 71 | 270 | 0.0 | 0.0 | 0.00 | 0.00 | 0.00 | 96 | 1053.3 |
| 20260902101102 | 71 | 251 | 0.0 | 0.0 | 0.00 | 0.00 | 0.00 | 96 | 1053.2 |
| 20260902100557 | 71 | 250 | 0.0 | 0.0 | 0.00 | 0.00 | 0.00 | 96 | 1053.2 |
| 20260902100052 | 71 | 311 | 0.0 | 0.0 | 0.00 | 0.00 | 0.00 | 96 | 1053.2 |
| 20260902095552 | 71 | 354 | 0.0 | 0.0 | 0.00 | 0.00 | 0.00 | 96 | 1053.2 |
| 20260902095051 | 71 | 80 | 0.0 | 0.0 | 0.00 | 0.00 | 0.00 | 96 | 1053.0 |
| 20260902094546 | 71 | 324 | 0.0 | 0.0 | 0.00 | 0.00 | 0.00 | 96 | 1053.1 |
| 20260902094042 | 70 | 352 | 0.0 | 0.0 | 0.00 | 0.00 | 0.00 | 96 | 1053.1 |
| 20260902093537 | 70 | 306 | 0.0 | 0.0 | 0.00 | 0.00 | 0.00 | 96 | 1053.0 |
| 20260902093036 | 71 | 270 | 0.0 | 0.0 | 0.00 | 0.00 | 0.00 | 95 | 1053.3 |
| 20260902092531 | 71 | 299 | 0.0 | 0.0 | 0.00 | 0.00 | 0.00 | 96 | 1052.9 |
| 20260902092026 | 71 | 283 | 0.0 | 0.0 | 0.00 | 0.00 | 0.00 | 96 | 1053.1 |
| 20260902091522 | 71 | 7 | 0.0 | 0.0 | 0.00 | 0.00 | 0.00 | 96 | 1053.0 |
| 20260902091018 | 71 | 7 | 0.0 | 0.0 | 0.00 | 0.00 | 0.00 | 95 | 1053.0 |
| 20260902090514 | 71 | 25 | 0.0 | 0.0 | 0.00 | 0.00 | 0.00 | 95 | 1052.9 |
| 20260902090013 | 71 | 27 | 0.0 | 0.0 | 0.00 | 0.00 | 0.00 | 96 | 1052.9 |
| 20260902085507 | 71 | 311 | 0.0 | 0.0 | 0.00 | 0.00 | 0.00 | 95 | 1053.0 |
| 20260902085008 | 71 | 359 | 0.0 | 0.0 | 0.00 | 0.00 | 0.00 | 95 | 1052.9 |
| 20260902084504 | 71 | 27 | 0.0 | 0.0 | 0.00 | 0.00 | 0.00 | 95 | 1052.8 |
| 20260902083959 | 71 | 25 | 0.0 | 0.0 | 0.00 | 0.00 | 0.00 | 95 | 1053.2 |
| 20260902083454 | 72 | 17 | 0.0 | 0.0 | 0.00 | 0.00 | 0.00 | 95 | 1052.8 |
| 20260902082949 | 71 | 52 | 0.0 | 0.0 | 0.00 | 0.00 | 0.00 | 95 | 1052.9 |
| 20260902082444 | 72 | 322 | 0.0 | 0.0 | 0.00 | 0.00 | 0.00 | 95 | 1052.8 |
| 20260902081941 | 72 | 326 | 0.0 | 0.0 | 0.00 | 0.00 | 0.00 | 95 | 1053.0 |
| 20260902081438 | 71 | 326 | 0.0 | 0.0 | 0.00 | 0.00 | 0.00 | 95 | 1053.0 |
| 20260902080938 | 72 | 337 | 0.0 | 0.0 | 0.00 | 0.00 | 0.00 | 95 | 1052.8 |
| 20260902080434 | 72 | 334 | 0.0 | 0.0 | 0.00 | 0.00 | 0.00 | 95 | 1052.9 |
| 20260902075933 | 71 | 334 | 0.0 | 0.0 | 0.00 | 0.00 | 0.00 | 95 | 1052.8 |
| 20260902075430 | 71 | 341 | 0.0 | 0.0 | 0.00 | 0.00 | 0.00 | 95 | 1052.8 |
| 20260902074925 | 72 | 356 | 0.0 | 0.0 | 0.00 | 0.00 | 0.00 | 95 | 1052.5 |
| 20260902074421 | 72 | 141 | 0.0 | 0.0 | 0.00 | 0.00 | 0.00 | 96 | 1052.7 |
| 20260902073920 | 71 | 141 | 0.0 | 0.0 | 0.00 | 0.00 | 0.00 | 96 | 1052.7 |
| 20260902073417 | 71 | 141 | 0.0 | 0.0 | 0.00 | 0.00 | 0.00 | 96 | 1052.8 |
| 20260902072913 | 71 | 188 | 0.0 | 0.0 | 0.00 | 0.00 | 0.00 | 96 | 1052.9 |
| 20260902072408 | 71 | 142 | 0.0 | 0.0 | 0.00 | 0.00 | 0.00 | 95 | 1052.3 |
| 20260902071905 | 71 | 142 | 0.0 | 0.0 | 0.00 | 0.00 | 0.00 | 95 | 1052.5 |
| 20260902071404 | 71 | 142 | 0.0 | 0.0 | 0.00 | 0.00 | 0.00 | 95 | 1052.3 |
| 20260902070901 | 71 | 142 | 0.0 | 0.0 | 0.00 | 0.00 | 0.00 | 95 | 1052.4 |
| 20260902070356 | 71 | 142 | 0.0 | 0.0 | 0.00 | 0.00 | 0.00 | 95 | 1052.5 |
| 20260902065854 | 71 | 299 | 0.0 | 0.0 | 0.00 | 0.00 | 0.00 | 95 | 1052.5 |
| 20260902065350 | 71 | 285 | 0.0 | 0.0 | 0.00 | 0.00 | 0.00 | 94 | 1052.7 |
| 20260902064845 | 72 | 18 | 0.0 | 0.0 | 0.00 | 0.00 | 0.00 | 94 | 1052.9 |
| 20260902064341 | 72 | 18 | 0.0 | 0.0 | 0.00 | 0.00 | 0.00 | 94 | 1052.5 |
| 20260902063837 | 71 | 18 | 0.0 | 0.0 | 0.00 | 0.00 | 0.00 | 94 | 1052.7 |
| 20260902063337 | 72 | 34 | 1.7 | 1.7 | 0.00 | 0.00 | 0.00 | 94 | 1052.5 |
| 20260902062837 | 72 | 31 | 1.7 | 0.9 | 0.00 | 0.00 | 0.00 | 95 | 1052.9 |
| 20260902062337 | 72 | 27 | 0.0 | 0.0 | 0.00 | 0.00 | 0.00 | 95 | 1052.8 |
| 20260902061836 | 71 | 346 | 0.0 | 0.0 | 0.00 | 0.00 | 0.00 | 95 | 1052.7 |
| 20260902061332 | 71 | 7 | 0.0 | 0.0 | 0.00 | 0.00 | 0.00 | 95 | 1053.0 |
| 20260902060828 | 71 | 273 | 0.0 | 0.0 | 0.00 | 0.00 | 0.00 | 94 | 1053.1 |
| 20260902060323 | 71 | 267 | 0.0 | 0.0 | 0.00 | 0.00 | 0.00 | 94 | 1053.1 |
| 20260902055819 | 71 | 287 | 1.7 | 1.7 | 0.00 | 0.00 | 0.00 | 93 | 1053.1 |
| 20260902055315 | 72 | 264 | 0.0 | 0.0 | 0.00 | 0.00 | 0.00 | 93 | 1053.0 |
| 20260902054815 | 72 | 103 | 0.0 | 0.0 | 0.00 | 0.00 | 0.00 | 92 | 1052.8 |
| 20260902054311 | 73 | 21 | 0.0 | 0.0 | 0.00 | 0.00 | 0.00 | 93 | 1052.8 |
| 20260902053806 | 73 | 44 | 0.9 | 0.9 | 0.00 | 0.00 | 0.00 | 93 | 1053.1 |
| 20260902053301 | 73 | 43 | 1.7 | 1.7 | 0.00 | 0.00 | 0.00 | 94 | 1052.9 |
| 20260902052800 | 73 | 33 | 0.0 | 0.0 | 0.00 | 0.00 | 0.00 | 94 | 1052.8 |
| 20260902052256 | 72 | 3 | 0.0 | 0.0 | 0.00 | 0.00 | 0.00 | 94 | 1052.9 |
| 20260902051756 | 72 | 3 | 0.0 | 0.0 | 0.00 | 0.00 | 0.00 | 94 | 1052.5 |
| 20260902051255 | 72 | 2 | 0.0 | 0.0 | 0.00 | 0.00 | 0.00 | 94 | 1053.0 |
| 20260902050750 | 73 | 2 | 0.0 | 0.0 | 0.00 | 0.00 | 0.00 | 94 | 1052.9 |
| 20260902050245 | 73 | 2 | 0.0 | 0.0 | 0.00 | 0.00 | 0.00 | 95 | 1052.7 |
| 20260902045745 | 72 | 344 | 0.0 | 0.0 | 0.00 | 0.00 | 0.00 | 94 | 1052.8 |
| 20260902045241 | 72 | 335 | 0.0 | 0.0 | 0.00 | 0.00 | 0.00 | 94 | 1052.7 |
| 20260902044737 | 72 | 335 | 0.0 | 0.0 | 0.00 | 0.00 | 0.00 | 94 | 1052.5 |
| 20260902044232 | 73 | 335 | 0.0 | 0.0 | 0.00 | 0.00 | 0.00 | 94 | 1052.8 |